Hoegh Berlin — C6XQ4 — position and weather

sailwx.info

Track history (hours):
 
Tides and Currents Weather Stations Pressure Air Temp Water Temp Dewpoint Dewpoint Depression Visibility Wind Speed Wind Dir Waves Ship Positions

Hoegh Berlin

Last reported at 2016-Jul-28 17:21 UTC. Time now 2016-Jul-30 01:54 UTC.
Position S 30°19' E 030°54'.

Length 228 m; draft 8.5 m.

Type: Cargo ship. MMSI: 311019100.

Date/timePositionNaut miles runAvg speedWind from/ knotsBaromVisibWave heightAir tempDewpointWater temp
2016-Jul-28 17:21S 30°19' E 030°54'1316.6
2016-Jul-28 16:34S 30°08' E 031°02'1515.2
2016-Jul-28 15:33S 29°54' E 031°09'6 6.3
2016-Jul-28 14:31S 29°52' E 031°02'0 0.5
2016-Jul-28 13:28S 29°52' E 031°02'0 0.0
2016-Jul-28 12:31S 29°52' E 031°02'0 0.0
2016-Jul-28 11:31S 29°52' E 031°02'0 0.0
2016-Jul-28 10:31S 29°52' E 031°02'0 0.0
2016-Jul-28 09:25S 29°52' E 031°02'0 0.0
2016-Jul-28 08:31S 29°52' E 031°02'0 0.0
2016-Jul-28 07:31S 29°52' E 031°02'0 0.0
2016-Jul-28 06:31S 29°52' E 031°02'0 0.0
2016-Jul-28 05:31S 29°52' E 031°02'0 0.0
2016-Jul-28 04:25S 29°52' E 031°02'0 0.0
2016-Jul-28 03:31S 29°52' E 031°02'0 0.0
2016-Jul-28 02:31S 29°52' E 031°02'0 0.0
2016-Jul-28 01:31S 29°52' E 031°02'0 0.0
2016-Jul-28 00:31S 29°52' E 031°02'0 0.0
2016-Jul-27 23:34S 29°52' E 031°02'0 0.0
2016-Jul-27 22:33S 29°52' E 031°02'0 0.0
2016-Jul-27 21:33S 29°52' E 031°02'0 0.0
2016-Jul-27 20:33S 29°52' E 031°02'0 0.0
2016-Jul-27 19:34S 29°52' E 031°02'0 0.0
2016-Jul-27 18:34S 29°52' E 031°02'2 2.1
2016-Jul-27 17:33S 29°51' E 031°04'5 4.9
2016-Jul-27 16:34S 29°49' E 031°09'1010.1
2016-Jul-27 15:33S 29°59' E 031°13'0 0.3
2016-Jul-27 14:33S 29°59' E 031°13'5 5.1
2016-Jul-27 13:33S 29°54' E 031°13'1515.0
2016-Jul-27 12:33S 29°42' E 031°24'1817.5
2016-Jul-27 11:33S 29°35' E 031°43'4017.6
2016-Jul-27 09:17S 29°12' E 032°21'  
Track history (hours):
 
Tides and Currents Weather Stations Pressure Air Temp Water Temp Dewpoint Dewpoint Depression Visibility Wind Speed Wind Dir Waves Ship Positions

Hoegh Berlin

Last reported at 2016-Jul-28 17:21 UTC. Time now 2016-Jul-30 01:54 UTC.
Position S 30°19' E 030°54'.

Length 228 m; draft 8.5 m.

Type: Cargo ship. MMSI: 311019100.

Date/timePositionNaut miles runAvg speedWind from/ knotsBaromVisibWave heightAir tempDewpointWater temp
2016-Jul-28 17:21S 30°19' E 030°54'1316.6
2016-Jul-28 16:34S 30°08' E 031°02'1515.2
2016-Jul-28 15:33S 29°54' E 031°09'6 6.3
2016-Jul-28 14:31S 29°52' E 031°02'0 0.5
2016-Jul-28 13:28S 29°52' E 031°02'0 0.0
2016-Jul-28 12:31S 29°52' E 031°02'0 0.0
2016-Jul-28 11:31S 29°52' E 031°02'0 0.0
2016-Jul-28 10:31S 29°52' E 031°02'0 0.0
2016-Jul-28 09:25S 29°52' E 031°02'0 0.0
2016-Jul-28 08:31S 29°52' E 031°02'0 0.0
2016-Jul-28 07:31S 29°52' E 031°02'0 0.0
2016-Jul-28 06:31S 29°52' E 031°02'0 0.0
2016-Jul-28 05:31S 29°52' E 031°02'0 0.0
2016-Jul-28 04:25S 29°52' E 031°02'0 0.0
2016-Jul-28 03:31S 29°52' E 031°02'0 0.0
2016-Jul-28 02:31S 29°52' E 031°02'0 0.0
2016-Jul-28 01:31S 29°52' E 031°02'0 0.0
2016-Jul-28 00:31S 29°52' E 031°02'0 0.0
2016-Jul-27 23:34S 29°52' E 031°02'0 0.0
2016-Jul-27 22:33S 29°52' E 031°02'0 0.0
2016-Jul-27 21:33S 29°52' E 031°02'0 0.0
2016-Jul-27 20:33S 29°52' E 031°02'0 0.0
2016-Jul-27 19:34S 29°52' E 031°02'0 0.0
2016-Jul-27 18:34S 29°52' E 031°02'2 2.1
2016-Jul-27 17:33S 29°51' E 031°04'5 4.9
2016-Jul-27 16:34S 29°49' E 031°09'1010.1
2016-Jul-27 15:33S 29°59' E 031°13'0 0.3
2016-Jul-27 14:33S 29°59' E 031°13'5 5.1
2016-Jul-27 13:33S 29°54' E 031°13'1515.0
2016-Jul-27 12:33S 29°42' E 031°24'1817.5
2016-Jul-27 11:33S 29°35' E 031°43'4017.6
2016-Jul-27 09:17S 29°12' E 032°21'  

Dump ship's entire track history